Time;durP1;ratioP1;P1;durP2;ratioP2;P2;SDS_P1;SDS_P2;PMS_P1;PMS_P2;Temp;Humidity;BMP_temperature;BMP_pressure;BME280_temperature;BME280_humidity;BME280_pressure;Samples;Min_cycle;Max_cycle;Signal;HPM_P1;HPM_P2
2022/04/24 00:00:22;;;;;;;22.35;2.05;;;;;;;20.54;48.68;98278.50;7309309;19;142327;-38
2022/04/24 00:02:47;;;;;;;28.55;2.70;;;;;;;20.50;49.66;98274.59;7310529;19;140302;-40
2022/04/24 00:05:12;;;;;;;20.42;1.92;;;;;;;20.53;50.22;98271.63;7310006;19;154233;-41
2022/04/24 00:07:37;;;;;;;22.60;1.93;;;;;;;20.52;50.34;98268.22;7309890;19;159257;-39
2022/04/24 00:10:04;;;;;;;20.40;2.03;;;;;;;20.53;50.86;98266.41;7308825;19;158885;-40
2022/04/24 00:12:29;;;;;;;22.10;2.15;;;;;;;20.55;50.60;98264.47;7308461;19;128966;-36
2022/04/24 00:14:54;;;;;;;40.90;3.40;;;;;;;20.54;50.60;98268.06;7308469;19;153660;-40
2022/04/24 00:17:20;;;;;;;23.53;2.30;;;;;;;20.54;50.68;98257.63;7309012;19;159271;-40
2022/04/24 00:19:47;;;;;;;19.57;1.83;;;;;;;20.54;49.83;98253.19;7309592;19;129151;-38
2022/04/24 00:22:12;;;;;;;21.02;1.85;;;;;;;20.27;47.87;98250.13;7309054;19;129024;-40
2022/04/24 00:24:37;;;;;;;25.05;2.33;;;;;;;20.13;48.24;98245.53;7310124;19;154140;-40
2022/04/24 00:27:03;;;;;;;20.30;1.75;;;;;;;20.13;48.10;98248.16;7309559;19;158482;-40
2022/04/24 00:29:28;;;;;;;25.38;2.33;;;;;;;20.12;47.77;98243.88;7311235;19;129236;-40
2022/04/24 00:31:53;;;;;;;27.83;2.53;;;;;;;20.15;47.51;98235.75;7307579;19;154569;-36
2022/04/24 00:34:19;;;;;;;21.48;2.05;;;;;;;20.21;47.22;98235.13;7310268;19;152863;-38
2022/04/24 00:36:45;;;;;;;26.27;2.35;;;;;;;20.24;47.70;98242.63;7309036;19;158803;-40
2022/04/24 00:39:11;;;;;;;21.90;2.05;;;;;;;20.21;47.41;98230.72;7310991;19;130945;-38
2022/04/24 00:41:44;;;;;;;10.43;1.13;;;;;;;20.24;46.96;98225.19;7315475;19;129384;-38
2022/04/24 00:44:10;;;;;;;37.40;3.17;;;;;;;20.24;46.71;98229.56;7317767;19;129573;-38
2022/04/24 00:47:00;;;;;;;15.27;1.67;;;;;;;20.27;46.71;98218.81;7317888;19;130993;-40
2022/04/24 00:49:26;;;;;;;17.45;2.05;;;;;;;20.26;47.29;98220.59;7316744;19;129072;-40
2022/04/24 00:51:52;;;;;;;25.98;2.47;;;;;;;20.50;47.19;98223.19;7315693;19;129327;-38
2022/04/24 00:54:17;;;;;;;24.60;2.17;;;;;;;20.46;48.67;98214.06;7317994;19;129014;-39
2022/04/24 00:56:43;;;;;;;25.08;2.30;;;;;;;20.49;48.55;98210.31;7315971;19;149859;-39
2022/04/24 00:59:12;;;;;;;20.60;2.00;;;;;;;20.49;50.25;98212.91;7315996;19;130443;-40
2022/04/24 01:01:39;;;;;;;22.13;1.98;;;;;;;20.50;49.84;98204.09;7316327;19;129043;-39
2022/04/24 01:04:05;;;;;;;;;;;;;;;20.58;50.28;98204.06;7318411;19;129768;-38
2022/04/24 01:06:36;;;;;;;26.20;2.50;;;;;;;20.55;50.97;98196.56;7316884;19;129362;-37
2022/04/24 01:09:17;;;;;;;39.70;3.05;;;;;;;20.54;50.86;98195.75;7316284;19;130457;-39
2022/04/24 01:11:44;;;;;;;25.20;2.30;;;;;;;20.54;50.98;98194.97;7314413;19;130858;-41
2022/04/24 01:14:10;;;;;;;;;;;;;;;20.61;51.27;98195.91;7316366;19;129300;-38
2022/04/24 01:16:35;;;;;;;18.38;1.88;;;;;;;20.56;50.96;98193.00;7315882;19;130204;-39
2022/04/24 01:19:03;;;;;;;18.73;1.80;;;;;;;20.55;50.13;98191.34;7315741;19;129986;-37
2022/04/24 01:21:28;;;;;;;22.67;2.00;;;;;;;20.44;49.25;98183.88;7314318;19;130983;-39
2022/04/24 01:23:54;;;;;;;25.05;2.35;;;;;;;20.22;48.30;98184.56;7316597;19;129023;-41
2022/04/24 01:26:19;;;;;;;24.55;2.20;;;;;;;20.14;48.34;98179.31;7316647;19;129382;-40
2022/04/24 01:28:44;;;;;;;23.58;2.30;;;;;;;20.14;48.02;98176.72;7313643;19;157727;-39
2022/04/24 01:31:10;;;;;;;39.05;3.55;;;;;;;20.17;47.48;98174.63;7314497;19;129816;-40
2022/04/24 01:33:36;;;;;;;26.33;2.27;;;;;;;20.22;47.29;98168.91;7315965;19;129393;-39
2022/04/24 01:36:01;;;;;;;22.65;1.95;;;;;;;20.20;47.26;98170.84;7316123;19;130772;-37
2022/04/24 01:38:28;;;;;;;19.23;1.67;;;;;;;20.19;47.36;98167.47;7314403;19;158245;-39
2022/04/24 01:40:54;;;;;;;21.65;2.08;;;;;;;20.10;46.65;98150.13;7313066;19;128869;-40
2022/04/24 01:43:19;;;;;;;23.75;2.20;;;;;;;20.26;46.95;98170.22;7313704;19;154020;-41
2022/04/24 01:45:44;;;;;;;35.22;3.05;;;;;;;20.22;47.12;98153.25;7313269;19;158387;-41
2022/04/24 01:48:10;;;;;;;21.60;1.98;;;;;;;20.16;47.04;98143.47;7314777;19;158252;-40
2022/04/24 01:50:35;;;;;;;21.75;2.03;;;;;;;20.51;47.46;98154.31;7312532;19;155194;-41
2022/04/24 01:53:00;;;;;;;17.98;1.70;;;;;;;20.49;48.80;98145.84;7313489;19;154016;-40
2022/04/24 01:55:26;;;;;;;47.30;4.23;;;;;;;20.49;49.48;98151.06;7314039;19;158519;-41
2022/04/24 01:57:51;;;;;;;30.52;2.78;;;;;;;20.50;49.98;98138.81;7316170;19;131771;-38
2022/04/24 02:00:16;;;;;;;30.00;2.90;;;;;;;20.51;50.10;98145.69;7314160;19;128980;-40
2022/04/24 02:02:42;;;;;;;26.17;2.42;;;;;;;20.45;50.12;98131.50;7314995;19;131593;-39
2022/04/24 02:05:07;;;;;;;21.27;2.00;;;;;;;20.54;50.29;98140.13;7315172;19;158403;-40
2022/04/24 02:07:32;;;;;;;18.47;1.90;;;;;;;20.56;50.92;98135.56;7313678;19;157251;-41
2022/04/24 02:09:57;;;;;;;18.60;1.67;;;;;;;20.55;50.29;98133.91;7314639;19;154694;-40
2022/04/24 02:12:23;;;;;;;22.53;2.27;;;;;;;20.57;49.80;98137.19;7311238;19;154665;-41
2022/04/24 02:14:48;;;;;;;39.80;3.45;;;;;;;20.55;50.70;98131.31;7311613;19;158541;-41
2022/04/24 02:17:13;;;;;;;22.77;2.20;;;;;;;20.57;50.67;98121.50;7314114;19;157976;-40
2022/04/24 02:19:38;;;;;;;29.60;2.50;;;;;;;20.47;48.63;98123.50;7314027;19;155706;-40
2022/04/24 02:22:04;;;;;;;6.77;0.90;;;;;;;20.28;48.68;98126.50;7310591;19;154750;-40
2022/04/24 02:24:30;;;;;;;19.52;1.98;;;;;;;20.11;47.41;98111.81;7314648;19;129246;-40
2022/04/24 02:26:55;;;;;;;15.57;1.73;;;;;;;20.21;47.87;98120.31;7312504;19;159315;-37
2022/04/24 02:29:20;;;;;;;23.83;2.40;;;;;;;20.21;46.93;98122.94;7314800;19;130761;-39
2022/04/24 02:31:46;;;;;;;30.73;2.72;;;;;;;20.18;46.93;98116.22;7311441;19;134702;-40
2022/04/24 02:34:11;;;;;;;17.17;1.63;;;;;;;20.19;47.69;98122.28;7313714;19;159600;-40
2022/04/24 02:36:36;;;;;;;26.77;2.43;;;;;;;20.25;47.18;98126.81;7313208;19;159343;-40
2022/04/24 02:39:01;;;;;;;27.87;2.33;;;;;;;20.27;47.31;98119.63;7312478;19;154693;-40
2022/04/24 02:41:27;;;;;;;23.88;2.17;;;;;;;20.26;46.53;98112.81;7312273;19;129222;-41
2022/04/24 02:43:52;;;;;;;25.33;2.42;;;;;;;20.25;46.68;98111.16;7314190;19;129877;-40
2022/04/24 02:46:17;;;;;;;16.63;2.03;;;;;;;20.48;47.12;98099.84;7311373;19;158527;-40
2022/04/24 02:48:43;;;;;;;26.07;2.40;;;;;;;20.53;48.47;98101.94;7311737;19;155073;-40
2022/04/24 02:51:08;;;;;;;26.65;2.33;;;;;;;20.41;49.48;98082.44;7312306;19;129005;-40
2022/04/24 02:53:33;;;;;;;39.83;3.43;;;;;;;20.53;49.70;98099.31;7311682;19;156424;-39
2022/04/24 02:55:59;;;;;;;16.20;1.63;;;;;;;20.45;49.87;98083.69;7311489;19;157939;-39
2022/04/24 02:58:25;;;;;;;17.83;1.87;;;;;;;20.57;49.46;98098.03;7311263;19;154831;-39
2022/04/24 03:00:51;;;;;;;30.08;3.03;;;;;;;20.57;49.27;98106.69;7310495;19;128990;-41
2022/04/24 03:03:20;;;;;;;24.85;2.20;;;;;;;20.58;50.03;98102.25;7312474;19;130494;-40
2022/04/24 03:05:46;;;;;;;30.20;2.88;;;;;;;20.49;50.29;98096.22;7312072;19;129270;-41
2022/04/24 03:08:12;;;;;;;23.95;2.30;;;;;;;20.59;50.89;98109.13;7313506;19;128912;-41
2022/04/24 03:10:38;;;;;;;15.23;1.48;;;;;;;20.53;49.63;98089.72;7312976;19;128959;-43
2022/04/24 03:13:03;;;;;;;20.33;2.08;;;;;;;20.58;50.34;98100.47;7311350;19;130201;-40
2022/04/24 03:15:28;;;;;;;28.75;2.78;;;;;;;20.42;48.61;98110.97;7311925;19;129427;-41
2022/04/24 03:17:57;;;;;;;25.70;2.47;;;;;;;20.22;47.79;98101.06;7312319;19;153807;-40
2022/04/24 03:20:22;;;;;;;26.20;2.45;;;;;;;20.22;47.69;98106.28;7312239;19;128773;-39
2022/04/24 03:22:49;;;;;;;29.55;2.78;;;;;;;20.18;47.28;98105.00;7312664;19;130181;-40
2022/04/24 03:25:15;;;;;;;24.42;2.38;;;;;;;20.21;46.91;98099.44;7313864;19;129699;-40
2022/04/24 03:27:40;;;;;;;29.48;2.92;;;;;;;20.25;47.07;98098.13;7313429;19;128914;-37
2022/04/24 03:30:12;;;;;;;19.73;2.00;;;;;;;20.23;47.35;98097.50;7313264;19;139418;-37
2022/04/24 03:32:38;;;;;;;23.65;2.30;;;;;;;20.24;47.06;98099.09;7309744;19;130552;-39
2022/04/24 03:35:06;;;;;;;20.45;1.95;;;;;;;20.27;46.88;98093.53;7312648;19;130315;-38
2022/04/24 03:37:31;;;;;;;30.98;2.92;;;;;;;20.28;46.95;98089.97;7312059;19;129157;-42
2022/04/24 03:39:57;;;;;;;17.35;1.70;;;;;;;20.20;47.14;98076.91;7312282;19;128948;-40
2022/04/24 03:42:22;;;;;;;27.92;2.75;;;;;;;20.49;47.98;98083.19;7310146;19;130154;-40
2022/04/24 03:44:47;;;;;;;9.65;1.42;;;;;;;20.49;48.66;98088.41;7313529;19;130330;-40
2022/04/24 03:47:16;;;;;;;36.88;3.00;;;;;;;20.49;49.51;98088.41;7310794;19;129977;-39
2022/04/24 03:49:41;;;;;;;23.42;2.20;;;;;;;20.51;49.17;98083.84;7310009;19;129561;-37
2022/04/24 03:52:08;;;;;;;16.85;1.67;;;;;;;20.58;49.69;98082.19;7309340;19;157188;-41
2022/04/24 03:54:33;;;;;;;22.25;2.10;;;;;;;20.56;50.05;98085.97;7312392;19;131528;-41
2022/04/24 03:56:58;;;;;;;44.08;4.15;;;;;;;20.55;50.36;98079.91;7311188;19;129982;-38
2022/04/24 03:59:24;;;;;;;23.02;2.20;;;;;;;20.53;50.61;98074.03;7309684;19;154264;-40
2022/04/24 04:01:49;;;;;;;15.07;1.75;;;;;;;20.59;50.44;98077.78;7308890;19;158192;-37
2022/04/24 04:04:15;;;;;;;29.90;2.63;;;;;;;20.57;50.56;98084.97;7309584;19;157299;-40
2022/04/24 04:06:40;;;;;;;14.05;1.67;;;;;;;20.48;50.40;98065.91;7312369;19;129297;-38
2022/04/24 04:09:06;;;;;;;19.52;2.00;;;;;;;20.55;50.88;98089.53;7311752;19;154596;-40
2022/04/24 04:11:31;;;;;;;31.15;2.90;;;;;;;20.42;49.71;98073.59;7308693;19;140748;-38
2022/04/24 04:13:56;;;;;;;11.90;1.40;;;;;;;20.24;47.52;98094.72;7309074;19;143966;-40
2022/04/24 04:16:22;;;;;;;25.60;2.30;;;;;;;20.17;47.58;98098.13;7308374;19;154586;-40
2022/04/24 04:18:48;;;;;;;27.00;2.40;;;;;;;20.25;48.12;98090.28;7311150;19;128977;-42
2022/04/24 04:21:13;;;;;;;22.70;2.10;;;;;;;20.20;47.13;98098.63;7308928;19;130563;-38
2022/04/24 04:23:38;;;;;;;22.67;1.97;;;;;;;20.18;47.63;98095.34;7311154;19;157376;-39
2022/04/24 04:26:04;;;;;;;16.80;1.80;;;;;;;20.22;47.30;98101.06;7308401;19;155149;-41
2022/04/24 04:28:29;;;;;;;17.48;1.70;;;;;;;20.24;47.51;98099.09;7311512;19;129205;-38
2022/04/24 04:30:54;;;;;;;40.03;3.60;;;;;;;20.27;46.70;98093.53;7308551;19;159071;-38
2022/04/24 04:33:19;;;;;;;21.70;2.22;;;;;;;20.28;46.90;98093.38;7309664;19;151438;-37
2022/04/24 04:35:45;;;;;;;25.42;2.38;;;;;;;20.30;46.99;98083.59;7311997;19;129148;-40
2022/04/24 04:38:11;;;;;;;23.13;2.10;;;;;;;20.29;47.18;98086.38;7312258;19;129475;-40
2022/04/24 04:40:36;;;;;;;28.27;2.90;;;;;;;20.50;47.70;98087.44;7306884;19;158624;-39
2022/04/24 04:43:01;;;;;;;20.03;2.00;;;;;;;20.52;48.19;98084.66;7308173;19;159024;-38
2022/04/24 04:45:26;;;;;;;42.87;4.00;;;;;;;20.52;48.92;98084.66;7308017;19;154440;-39
2022/04/24 04:47:52;;;;;;;25.02;2.35;;;;;;;20.53;49.03;98079.25;7309912;19;154603;-40
2022/04/24 04:50:18;;;;;;;24.98;2.53;;;;;;;20.56;49.46;98076.31;7308773;19;130234;-35
2022/04/24 04:52:43;;;;;;;26.13;2.40;;;;;;;20.57;49.93;98080.56;7310383;19;129919;-40
2022/04/24 04:55:09;;;;;;;9.32;1.20;;;;;;;20.59;50.00;98089.00;7309965;19;129117;-41
2022/04/24 04:57:34;;;;;;;22.58;2.28;;;;;;;20.51;50.46;98070.00;7310413;19;129959;-41
2022/04/24 04:59:59;;;;;;;20.80;2.03;;;;;;;20.59;50.75;98080.41;7309011;19;129123;-39
2022/04/24 05:02:25;;;;;;;15.25;1.85;;;;;;;20.50;50.20;98071.78;7306076;19;158361;-40
2022/04/24 05:04:50;;;;;;;32.57;2.87;;;;;;;20.59;50.62;98080.41;7308436;19;153568;-41
2022/04/24 05:07:15;;;;;;;22.43;2.23;;;;;;;20.59;50.75;98088.22;7308265;19;155468;-41
2022/04/24 05:09:40;;;;;;;30.77;2.80;;;;;;;20.60;50.84;98084.63;7307314;19;158127;-40
2022/04/24 05:12:07;;;;;;;20.98;2.00;;;;;;;20.25;48.13;98085.06;7307322;19;130365;-40
2022/04/24 05:14:33;;;;;;;12.73;1.40;;;;;;;20.15;47.95;98076.59;7310201;19;128819;-39
2022/04/24 05:16:58;;;;;;;21.17;1.95;;;;;;;20.15;47.82;98074.00;7309660;19;129055;-40
2022/04/24 05:19:25;;;;;;;18.00;1.70;;;;;;;20.18;47.81;98074.47;7307197;19;158417;-40
2022/04/24 05:21:50;;;;;;;28.75;2.67;;;;;;;20.13;47.04;98060.31;7307502;19;129190;-40
2022/04/24 05:24:15;;;;;;;22.00;2.20;;;;;;;20.20;47.33;98077.75;7309201;19;129065;-40
2022/04/24 05:26:41;;;;;;;34.97;3.17;;;;;;;20.23;47.68;98071.41;7311809;19;154286;-38
2022/04/24 05:29:07;;;;;;;18.40;1.83;;;;;;;20.26;46.81;98074.44;7317533;19;130305;-39
2022/04/24 05:31:32;;;;;;;19.43;1.67;;;;;;;20.25;46.78;98072.84;7312334;19;130611;-40
2022/04/24 05:33:57;;;;;;;28.67;2.67;;;;;;;20.16;47.05;98054.78;7315861;19;129510;-40
2022/04/24 05:36:22;;;;;;;25.33;2.57;;;;;;;20.25;47.00;98061.56;7315311;19;154963;-41
2022/04/24 05:38:48;;;;;;;16.53;1.97;;;;;;;20.50;47.46;98068.34;7315430;19;158317;-41
2022/04/24 05:41:13;;;;;;;25.75;2.60;;;;;;;20.47;48.62;98063.47;7313143;19;135703;-38
2022/04/24 05:43:38;;;;;;;22.60;2.10;;;;;;;20.50;48.71;98063.13;7315194;19;155492;-40
2022/04/24 05:46:03;;;;;;;19.85;1.90;;;;;;;20.51;48.89;98057.72;7316114;19;129173;-41
2022/04/24 05:48:29;;;;;;;20.02;1.92;;;;;;;20.48;49.64;98057.25;7314124;19;158544;-39
2022/04/24 05:50:54;;;;;;;26.83;2.60;;;;;;;20.58;49.87;98060.47;7313774;19;158541;-42
2022/04/24 05:53:19;;;;;;;30.85;2.67;;;;;;;20.49;50.75;98041.41;7316964;19;129955;-38
2022/04/24 05:55:45;;;;;;;24.13;2.50;;;;;;;20.58;50.46;98052.63;7314894;19;154225;-38
2022/04/24 05:58:10;;;;;;;22.33;2.23;;;;;;;20.59;50.25;98051.66;7314995;19;158382;-40
2022/04/24 06:00:36;;;;;;;32.58;3.25;;;;;;;20.60;50.46;98046.28;7312932;19;158319;-41
2022/04/24 06:03:02;;;;;;;18.10;1.80;;;;;;;20.58;51.05;98044.81;7316361;19;130427;-40
2022/04/24 06:05:27;;;;;;;41.13;4.03;;;;;;;20.59;50.78;98042.03;7313869;19;129590;-38
2022/04/24 06:07:54;;;;;;;17.75;1.85;;;;;;;20.49;50.42;98030.97;7314442;19;150949;-36
2022/04/24 06:10:20;;;;;;;26.60;2.83;;;;;;;20.23;48.29;98040.09;7315162;19;130722;-38
2022/04/24 06:12:47;;;;;;;28.02;2.55;;;;;;;20.17;47.53;98032.91;7313527;19;154546;-40
2022/04/24 06:15:15;;;;;;;19.10;2.05;;;;;;;20.15;47.84;98037.47;7315282;19;128969;-40
2022/04/24 06:17:42;;;;;;;31.00;2.75;;;;;;;20.20;47.28;98029.94;7310148;19;130270;-41
2022/04/24 06:20:08;;;;;;;19.55;1.90;;;;;;;20.22;47.15;98025.38;7313604;19;129218;-38
2022/04/24 06:22:45;;;;;;;21.70;2.08;;;;;;;20.18;47.44;98017.09;7312212;19;129003;-40
2022/04/24 06:25:24;;;;;;;20.02;1.95;;;;;;;20.26;47.54;98024.06;7314063;19;131252;-37
2022/04/24 06:27:50;;;;;;;24.35;2.20;;;;;;;20.24;46.79;98016.41;7315316;19;132113;-40
2022/04/24 06:30:17;;;;;;;14.57;1.60;;;;;;;20.27;47.12;98020.47;7314867;19;130431;-39
2022/04/24 06:32:44;;;;;;;22.75;2.13;;;;;;;20.44;46.79;98016.81;7313555;19;128968;-39
2022/04/24 06:35:11;;;;;;;22.90;2.00;;;;;;;20.52;47.53;98003.72;7314805;19;128989;-40
2022/04/24 06:37:37;;;;;;;35.40;3.17;;;;;;;20.52;47.82;98003.72;7312773;19;130441;-41
2022/04/24 06:40:05;;;;;;;22.40;2.03;;;;;;;20.50;49.10;98001.28;7312448;19;129667;-41
2022/04/24 06:42:31;;;;;;;20.70;2.00;;;;;;;20.53;50.22;97997.50;7311621;19;128825;-37
2022/04/24 06:44:56;;;;;;;47.30;3.88;;;;;;;20.55;49.75;97983.31;7313645;19;129110;-40
2022/04/24 06:47:22;;;;;;;27.48;2.78;;;;;;;20.56;49.92;97976.31;7312375;19;131153;-39
2022/04/24 06:49:47;;;;;;;17.02;2.10;;;;;;;20.59;49.79;97986.41;7311469;19;158738;-42
2022/04/24 06:52:12;;;;;;;24.00;2.42;;;;;;;20.59;50.64;97983.78;7309014;19;155180;-40
2022/04/24 06:54:37;;;;;;;27.08;2.70;;;;;;;20.61;50.43;97992.25;7310822;19;154006;-40
2022/04/24 06:57:03;;;;;;;28.45;2.70;;;;;;;20.60;51.10;97994.06;7312317;19;151107;-41
2022/04/24 06:59:28;;;;;;;30.83;2.80;;;;;;;20.56;50.00;97984.94;7312800;19;129640;-40
2022/04/24 07:01:53;;;;;;;11.90;1.73;;;;;;;20.55;50.82;97974.66;7307247;19;154782;-40
2022/04/24 07:04:19;;;;;;;37.53;3.45;;;;;;;20.32;47.67;97986.84;7309807;19;152621;-37
2022/04/24 07:06:44;;;;;;;38.85;3.22;;;;;;;20.16;47.62;97986.94;7312272;19;129517;-38
2022/04/24 07:09:10;;;;;;;30.88;2.97;;;;;;;20.17;47.40;97991.97;7308691;19;158796;-41
2022/04/24 07:11:35;;;;;;;24.53;2.33;;;;;;;20.18;47.18;97992.81;7311558;19;129171;-38
2022/04/24 07:14:01;;;;;;;24.58;2.30;;;;;;;20.20;47.63;97988.22;7311439;19;129098;-42
2022/04/24 07:16:26;;;;;;;25.92;2.47;;;;;;;20.20;46.96;97990.81;7311050;19;130288;-40
2022/04/24 07:18:51;;;;;;;23.35;2.22;;;;;;;20.22;47.22;97991.47;7310691;19;159428;-40
2022/04/24 07:21:16;;;;;;;29.33;2.78;;;;;;;20.23;47.06;97996.50;7307702;19;154660;-41
2022/04/24 07:23:42;;;;;;;25.40;2.33;;;;;;;20.28;47.20;97985.59;7311527;19;154446;-38
2022/04/24 07:26:07;;;;;;;12.47;1.27;;;;;;;20.18;46.41;97970.13;7311396;19;152250;-38
2022/04/24 07:28:33;;;;;;;24.88;2.25;;;;;;;20.51;47.94;97989.06;7312867;19;130450;-40
2022/04/24 07:30:58;;;;;;;25.55;2.60;;;;;;;20.47;48.48;97985.16;7311540;19;129469;-40
2022/04/24 07:33:23;;;;;;;41.47;3.45;;;;;;;20.51;49.49;97994.28;7310825;19;130549;-38
2022/04/24 07:35:48;;;;;;;33.23;3.20;;;;;;;20.43;49.98;97982.06;7307508;19;158527;-39
2022/04/24 07:38:14;;;;;;;43.40;3.65;;;;;;;20.52;50.08;97983.66;7311546;19;138421;-39
2022/04/24 07:40:40;;;;;;;41.90;4.03;;;;;;;20.58;50.21;97984.75;7310095;19;129160;-38
2022/04/24 07:43:07;;;;;;;22.70;2.37;;;;;;;20.51;50.07;97978.63;7312807;19;129066;-38
2022/04/24 07:45:36;;;;;;;36.85;3.55;;;;;;;20.60;51.28;97983.63;7310967;19;130215;-40
2022/04/24 07:48:03;;;;;;;18.67;1.85;;;;;;;20.58;49.84;97987.38;7310804;19;130337;-41
2022/04/24 07:50:30;;;;;;;21.40;2.47;;;;;;;20.60;51.11;97982.78;7310429;19;129474;-41
2022/04/24 07:52:56;;;;;;;25.50;2.65;;;;;;;20.59;50.64;97983.78;7312403;19;129627;-38
2022/04/24 07:55:23;;;;;;;33.97;3.50;;;;;;;20.59;50.61;97983.78;7311684;19;130444;-40
2022/04/24 07:57:49;;;;;;;;;;;;;;;20.27;47.89;97968.28;7312619;19;130729;-38
2022/04/24 08:00:17;;;;;;;13.75;1.52;;;;;;;20.17;48.33;97986.75;7309096;19;129309;-43
2022/04/24 08:02:46;;;;;;;38.05;3.45;;;;;;;20.08;47.31;97973.91;7309786;19;129016;-38
2022/04/24 08:05:17;;;;;;;41.88;3.50;;;;;;;20.16;47.98;97981.72;7310606;19;130106;-41
2022/04/24 08:07:42;;;;;;;32.20;3.17;;;;;;;20.21;47.19;97985.44;7309312;19;129828;-41
2022/04/24 08:10:08;;;;;;;30.75;2.80;;;;;;;20.13;46.99;97968.97;7309064;19;153518;-41
2022/04/24 08:12:33;;;;;;;42.03;3.72;;;;;;;20.19;47.13;97982.19;7306668;19;129240;-41
2022/04/24 08:14:58;;;;;;;41.40;3.78;;;;;;;20.25;46.78;97988.50;7305563;19;159671;-40
2022/04/24 08:17:23;;;;;;;32.03;2.97;;;;;;;20.26;46.88;97982.31;7309061;19;157828;-40
2022/04/24 08:19:49;;;;;;;26.70;2.77;;;;;;;20.23;46.80;97987.88;7307992;19;154511;-38
2022/04/24 08:22:14;;;;;;;35.67;3.13;;;;;;;20.24;46.77;97986.91;7303197;19;154848;-39
2022/04/24 08:24:39;;;;;;;33.10;3.13;;;;;;;20.47;47.38;97990.38;7308321;19;159356;-38
2022/04/24 08:27:04;;;;;;;35.17;3.35;;;;;;;20.48;48.75;97976.31;7307329;19;158333;-40
2022/04/24 08:29:30;;;;;;;33.73;3.30;;;;;;;20.48;49.09;97976.31;7306314;19;155048;-38
2022/04/24 08:31:55;;;;;;;46.60;4.27;;;;;;;20.51;49.64;97982.03;7304839;19;155331;-41
2022/04/24 08:34:20;;;;;;;16.97;1.93;;;;;;;20.54;50.26;97994.72;7308873;19;157741;-41
2022/04/24 08:36:45;;;;;;;32.90;3.30;;;;;;;20.55;49.77;97992.94;7307445;19;158597;-41
2022/04/24 08:39:11;;;;;;;38.00;3.53;;;;;;;20.55;50.09;97985.94;7307688;19;132702;-41
2022/04/24 08:41:38;;;;;;;25.83;2.55;;;;;;;20.58;50.70;97982.16;7304157;19;153991;-40
2022/04/24 08:44:07;;;;;;;19.90;2.28;;;;;;;20.59;50.19;97996.84;7309932;19;130497;-40
2022/04/24 08:46:32;;;;;;;30.55;3.03;;;;;;;20.58;50.50;97982.16;7307520;19;130377;-38
2022/04/24 08:48:59;;;;;;;28.25;2.80;;;;;;;20.64;50.16;97971.03;7309590;19;129175;-40
2022/04/24 08:51:25;;;;;;;35.85;3.40;;;;;;;20.61;50.55;97981.78;7306371;19;129921;-39
2022/04/24 08:53:52;;;;;;;13.63;2.08;;;;;;;20.59;50.08;97978.56;7309660;19;130637;-42
2022/04/24 08:56:17;;;;;;;33.50;3.42;;;;;;;20.28;48.22;97977.75;7308090;19;130202;-41
2022/04/24 08:58:43;;;;;;;26.60;2.70;;;;;;;20.20;47.39;97972.56;7305642;19;153363;-41
2022/04/24 09:01:08;;;;;;;28.52;3.15;;;;;;;20.22;47.34;97962.75;7311123;19;129251;-39
2022/04/24 09:03:33;;;;;;;22.40;2.65;;;;;;;20.20;47.69;97970.75;7312954;19;157177;-40
2022/04/24 09:05:58;;;;;;;38.57;4.07;;;;;;;20.23;47.14;97957.38;7312300;19;149138;-38
2022/04/24 09:08:24;;;;;;;36.40;3.97;;;;;;;20.21;47.60;97969.78;7313620;19;155170;-41
2022/04/24 09:10:52;;;;;;;44.65;4.35;;;;;;;20.25;46.87;97959.81;7313500;19;128902;-39
2022/04/24 09:16:33;;;;;;;44.40;4.15;;;;;;;20.28;47.03;97970.72;7311196;19;129902;-38
2022/04/24 09:18:58;;;;;;;39.47;3.72;;;;;;;20.49;46.85;97970.13;7312886;19;129124;-42
2022/04/24 09:21:25;;;;;;;60.90;5.13;;;;;;;20.52;47.65;97970.63;7309691;19;156702;-41
2022/04/24 09:23:50;;;;;;;48.20;4.70;;;;;;;20.53;48.91;97958.34;7312605;19;129448;-38
2022/04/24 09:26:16;;;;;;;62.65;5.88;;;;;;;20.52;49.51;97960.16;7306641;19;158962;-41
2022/04/24 09:28:42;;;;;;;51.30;4.87;;;;;;;20.57;49.33;97960.47;7311516;19;129201;-40
2022/04/24 09:31:08;;;;;;;30.90;3.50;;;;;;;20.59;50.43;97978.56;7310438;19;130097;-37
2022/04/24 09:33:41;;;;;;;53.45;4.65;;;;;;;20.60;49.61;97961.91;7310066;19;130713;-37
2022/04/24 09:36:08;;;;;;;58.95;5.45;;;;;;;20.60;49.88;97975.78;7313279;19;129814;-41
2022/04/24 09:38:45;;;;;;;32.70;3.42;;;;;;;20.64;50.35;97956.16;7313035;19;129314;-39
2022/04/24 09:41:22;;;;;;;24.02;3.03;;;;;;;20.57;51.45;97943.97;7309789;19;130855;-37
2022/04/24 09:43:48;;;;;;;67.50;6.28;;;;;;;20.64;50.38;97961.38;7312007;19;130101;-40
2022/04/24 09:46:33;;;;;;;51.47;5.57;;;;;;;20.66;51.02;97966.41;7310546;19;130881;-41
2022/04/24 09:49:01;;;;;;;27.20;2.92;;;;;;;20.61;49.68;97963.50;7311223;19;129176;-39
2022/04/24 09:51:27;;;;;;;50.67;4.63;;;;;;;20.26;48.13;97971.88;7308289;19;130394;-37
2022/04/24 09:53:58;;;;;;;35.13;3.55;;;;;;;20.20;48.13;97956.91;7309145;19;130084;-39
2022/04/24 09:56:27;;;;;;;18.30;2.35;;;;;;;20.20;47.69;97975.16;7309895;19;130585;-41
2022/04/24 09:58:52;;;;;;;48.30;4.63;;;;;;;20.23;47.53;97959.19;7311850;19;128767;-40
2022/04/24 10:01:18;;;;;;;52.50;4.57;;;;;;;20.22;47.59;97954.94;7306219;19;154678;-40
2022/04/24 10:03:44;;;;;;;47.35;4.72;;;;;;;20.23;47.23;97956.59;7307386;19;129346;-40
2022/04/24 10:06:10;;;;;;;43.17;4.00;;;;;;;20.26;47.20;97951.00;7310395;19;130332;-38
2022/04/24 10:08:35;;;;;;;34.80;3.67;;;;;;;20.28;47.34;97970.72;7311666;19;130016;-39
2022/04/24 10:11:05;;;;;;;52.42;4.35;;;;;;;20.28;47.30;97964.72;7308093;19;129470;-36
2022/04/24 10:13:34;;;;;;;28.40;3.03;;;;;;;20.34;47.11;97964.00;7312638;19;130252;-40
2022/04/24 10:16:21;;;;;;;51.65;5.00;;;;;;;20.52;48.49;97961.97;7307370;19;130493;-40
2022/04/24 10:19:01;;;;;;;32.33;3.60;;;;;;;20.51;49.91;97966.34;7304150;19;129716;-40
2022/04/24 10:21:51;;;;;;;43.85;4.55;;;;;;;20.55;49.44;97992.94;7303994;19;131053;-40
2022/04/24 10:24:16;;;;;;;67.22;6.63;;;;;;;20.58;50.19;97977.75;7307795;19;129470;-41
2022/04/24 10:26:54;;;;;;;51.65;5.53;;;;;;;20.60;50.75;97972.34;7307786;19;158399;-41
2022/04/24 10:29:20;;;;;;;32.97;3.65;;;;;;;20.59;50.11;97970.72;7309478;19;131013;-41
2022/04/24 10:31:47;;;;;;;66.55;6.25;;;;;;;20.62;51.13;97973.00;7305659;19;130149;-39
2022/04/24 10:34:14;;;;;;;35.45;3.75;;;;;;;20.61;50.52;97974.78;7311299;19;128962;-40
2022/04/24 10:36:59;;;;;;;39.55;4.03;;;;;;;20.63;51.03;97987.66;7309245;19;130318;-39
2022/04/24 10:39:29;;;;;;;46.17;4.60;;;;;;;20.62;50.99;97973.00;7311167;19;129370;-38
2022/04/24 10:41:57;;;;;;;55.45;5.10;;;;;;;20.62;50.86;97971.19;7308187;19;129779;-40
2022/04/24 10:44:23;;;;;;;29.10;3.50;;;;;;;20.55;49.31;97974.66;7311360;19;130858;-40
2022/04/24 10:46:50;;;;;;;47.25;4.72;;;;;;;20.26;48.01;97993.56;7308467;19;130463;-37
2022/04/24 10:49:17;;;;;;;72.70;6.18;;;;;;;20.21;47.82;97989.84;7307810;19;129003;-41
2022/04/24 10:51:56;;;;;;;24.50;2.70;;;;;;;20.17;47.61;97978.13;7306959;19;129314;-38
2022/04/24 10:54:30;;;;;;;54.97;5.35;;;;;;;20.13;47.16;97971.59;7309121;19;129162;-40
2022/04/24 10:56:55;;;;;;;47.45;4.35;;;;;;;20.23;47.95;97998.31;7309368;19;130463;-40
2022/04/24 10:59:22;;;;;;;35.60;3.28;;;;;;;20.26;47.11;97987.56;7310826;19;134957;-39
2022/04/24 11:01:50;;;;;;;48.35;4.63;;;;;;;20.16;47.65;97986.94;7307047;19;129290;-41
2022/04/24 11:04:16;;;;;;;37.53;4.13;;;;;;;20.28;47.90;97996.81;7308746;19;131195;-40
2022/04/24 11:07:18;;;;;;;34.87;3.93;;;;;;;20.27;47.64;97978.72;7307218;19;130513;-41
2022/04/24 11:09:43;;;;;;;37.78;4.20;;;;;;;20.28;47.45;97981.16;7307107;19;128963;-40
2022/04/24 11:12:11;;;;;;;64.32;5.68;;;;;;;20.30;46.71;97988.81;7306593;19;129729;-39
2022/04/24 11:14:37;;;;;;;33.80;3.88;;;;;;;20.20;47.09;97964.72;7309819;19;130267;-40
2022/04/24 11:17:04;;;;;;;52.22;4.95;;;;;;;20.54;47.22;97986.09;7301678;19;130549;-40